FW3746 Weather Reports


Display with metric or nautical units.
time (UTC)temp
F
wind
direction
speed
MPH
gust
MPH
rain 1hr
in
rain 24hr
in
rain mn
in
humidity
%
barometer
mb
20240523151539 75 315 2.0 4.0 0.00 0.00 0.00 7 1008.5
20240523150034 74 313 3.0 6.0 0.00 0.00 0.00 6 1008.4
20240523144529 73 355 1.0 4.0 0.00 0.00 0.00 6 1008.4
20240523143027 73 12 0.0 3.0 0.00 0.00 0.00 6 1008.3
20240523141526 73 103 0.0 3.0 0.00 0.00 0.00 6 1008.1
20240523140023 71 99 1.0 3.0 0.00 0.00 0.00 8 1008.1
20240523133029 69 100 1.0 2.0 0.00 0.00 0.00 9 1007.9
20240523131520 67 100 2.0 4.0 0.00 0.00 0.00 9 1007.9
20240523130050 66 94 3.0 6.0 0.00 0.00 0.00 8 1007.9
20240523124549 65 92 3.0 6.0 0.00 0.00 0.00 9 1007.7
20240523123048 65 96 3.0 4.0 0.00 0.00 0.00 9 1007.6
20240523121559 65 91 5.0 7.0 0.00 0.00 0.00 9 1007.4
20240523120046 65 111 2.0 7.0 0.00 0.00 0.00 9 1007.6
20240523114545 64 93 1.0 4.0 0.00 0.00 0.00 10 1007.5
20240523113016 64 92 3.0 4.0 0.00 0.00 0.00 11 1007.6
20240523111515 65 92 2.0 4.0 0.00 0.00 0.00 10 1007.5
20240523110013 66 92 3.0 4.0 0.00 0.00 0.00 10 1007.5
20240523104512 65 85 3.0 6.0 0.00 0.00 0.00 11 1007.5
20240523103010 65 101 4.0 6.0 0.00 0.00 0.00 11 1007.4
20240523101510 64 85 2.0 6.0 0.00 0.00 0.00 12 1007.5
20240523100007 64 115 3.0 6.0 0.00 0.00 0.00 12 1007.3
20240523094507 63 92 6.0 7.0 0.00 0.00 0.00 13 1007.4
20240523093004 66 267 3.0 6.0 0.00 0.00 0.00 11 1007.2
20240523091504 67 279 3.0 7.0 0.00 0.00 0.00 10 1007.3
20240523090119 69 212 3.0 6.0 0.00 0.00 0.00 9 1007.5
20240523084602 68 182 5.0 8.0 0.00 0.00 0.00 9 1007.5
20240523083058 68 180 6.0 12.0 0.00 0.00 0.00 9 1007.5
20240523081608 68 188 3.0 8.0 0.00 0.00 0.00 10 1007.7
20240523080055 69 173 6.0 9.0 0.00 0.00 0.00 10 1007.8
20240523074603 69 175 6.0 10.0 0.00 0.00 0.00 10 1007.9
20240523073104 68 177 8.0 10.0 0.00 0.00 0.00 12 1008.0
20240523071549 69 178 5.0 7.0 0.00 0.00 0.00 12 1008.1
20240523070045 70 175 6.0 9.0 0.00 0.00 0.00 12 1008.0
20240523064544 70 168 6.0 9.0 0.00 0.00 0.00 13 1008.2
20240523063049 70 175 6.0 8.0 0.00 0.00 0.00 13 1008.2
20240523061554 70 188 6.0 9.0 0.00 0.00 0.00 13 1008.3
20240523060014 72 180 6.0 8.0 0.00 0.00 0.00 11 1008.3
20240523054505 73 173 7.0 10.0 0.00 0.00 0.00 10 1008.2
20240523053001 72 177 6.0 9.0 0.00 0.00 0.00 9 1008.3
20240523051601 72 174 5.0 7.0 0.00 0.00 0.00 9 1008.3
20240523050056 73 178 5.0 8.0 0.00 0.00 0.00 8 1008.3
20240523044555 74 199 5.0 9.0 0.00 0.00 0.00 8 1008.0
20240523043051 73 182 6.0 9.0 0.00 0.00 0.00 8 1007.7
20240523041548 75 198 3.0 6.0 0.00 0.00 0.00 8 1007.5
20240523040055 76 223 5.0 7.0 0.00 0.00 0.00 8 1007.2
20240523034544 76 212 5.0 7.0 0.00 0.00 0.00 7 1006.9
20240523033015 77 244 4.0 7.0 0.00 0.00 0.00 7 1006.9
20240523031513 79 217 7.0 11.0 0.00 0.00 0.00 6 1006.7
20240523030035 80 199 7.0 11.0 0.00 0.00 0.00 6 1006.5
20240523024531 81 211 7.0 12.0 0.00 0.00 0.00 6 1006.4
20240523023058 82 194 10.0 15.0 0.00 0.00 0.00 5 1006.2
20240523021525 83 185 10.0 14.0 0.00 0.00 0.00 5 1006.1
20240523020026 84 213 8.0 18.0 0.00 0.00 0.00 5 1005.9
20240523014525 85 232 12.0 20.0 0.00 0.00 0.00 5 1005.9
20240523013027 86 215 7.0 15.0 0.00 0.00 0.00 6 1005.8
20240523011515 87 231 8.0 17.0 0.00 0.00 0.00 5 1005.8
20240523010014 87 270 7.0 17.0 0.00 0.00 0.00 5 1005.7
20240523004513 88 270 11.0 20.0 0.00 0.00 0.00 5 1005.5
20240523003017 87 276 12.0 21.0 0.00 0.00 0.00 6 1005.8
20240523003014 87 295 12.0 21.0 0.00 0.00 0.00 6 1005.8
20240523001511 88 281 12.0 23.0 0.00 0.00 0.00 6 1005.8
20240522234513 88 307 11.0 19.0 0.00 0.00 0.00 7 1005.7
20240522233008 88 301 9.0 20.0 0.00 0.00 0.00 6 1005.6
20240522231507 88 196 9.0 20.0 0.00 0.00 0.00 5 1005.6
20240522230114 88 274 5.0 14.0 0.00 0.00 0.00 4 1005.8
20240522224501 88 325 8.0 18.0 0.00 0.00 0.00 6 1005.8
20240522223100 87 326 7.0 17.0 0.00 0.00 0.00 6 1005.9
20240522221556 88 319 3.0 16.0 0.00 0.00 0.00 6 1006.2
20240522220055 88 310 10.0 20.0 0.00 0.00 0.00 6 1006.4
20240522220003 88 254 8.0 20.0 0.00 0.00 0.00 7 1006.3
20240522214551 87 265 5.0 18.0 0.00 0.00 0.00 7 1006.6
20240522213048 86 197 5.0 15.0 0.00 0.00 0.00 7 1007.0
20240522211536 86 256 7.0 15.0 0.00 0.00 0.00 8 1007.3
20240522210035 86 303 7.0 18.0 0.00 0.00 0.00 7 1007.3
20240522204534 85 132 3.0 12.0 0.00 0.00 0.00 8 1007.5
20240522203133 85 319 10.0 18.0 0.00 0.00 0.00 8 1007.7
20240522201533 86 296 8.0 16.0 0.00 0.00 0.00 8 1007.9
20240522200036 84 290 10.0 16.0 0.00 0.00 0.00 6 1007.9
20240522194530 85 316 8.0 16.0 0.00 0.00 0.00 7 1008.0
20240522193129 84 310 6.0 18.0 0.00 0.00 0.00 8 1007.9
20240522191533 83 344 3.0 11.0 0.00 0.00 0.00 10 1008.3
20240522190032 83 207 4.0 10.0 0.00 0.00 0.00 10 1008.3
20240522184522 83 314 3.0 12.0 0.00 0.00 0.00 11 1008.4
20240522183121 82 331 8.0 14.0 0.00 0.00 0.00 12 1008.5
20240522181638 81 341 7.0 15.0 0.00 0.00 0.00 13 1008.6
20240522180058 80 311 6.0 12.0 0.00 0.00 0.00 13 1008.6
20240522174557 80 243 2.0 11.0 0.00 0.00 0.00 15 1008.7
20240522173055 79 213 4.0 10.0 0.00 0.00 0.00 15 1008.8
20240522171553 79 239 5.0 11.0 0.00 0.00 0.00 15 1008.8
20240522170054 79 214 5.0 8.0 0.00 0.00 0.00 16 1008.8
20240522164523 79 180 2.0 8.0 0.00 0.00 0.00 17 1008.7
20240522163036 78 263 3.0 10.0 0.00 0.00 0.00 18 1008.7
20240522161522 77 276 4.0 8.0 0.00 0.00 0.00 19 1009.0
20240522160035 76 184 6.0 10.0 0.00 0.00 0.00 19 1008.9
20240522154519 75 197 1.0 9.0 0.00 0.00 0.00 20 1009.0
20240522153028 75 238 2.0 5.0 0.00 0.00 0.00 20 1009.0